createdAt,value
2023-05-04T05:00:50.316Z,3.70
2023-05-04T05:11:54.967Z,7.00
2023-05-04T05:22:54.822Z,6.90
2023-05-04T05:33:54.698Z,7.00
2023-05-04T05:44:54.615Z,7.70
2023-05-04T05:55:54.485Z,7.70
2023-05-04T06:06:54.335Z,6.50
2023-05-04T06:17:54.226Z,6.60
2023-05-04T06:28:54.082Z,6.20
2023-05-04T06:39:53.959Z,6.50
2023-05-04T06:50:53.833Z,6.20
2023-05-04T07:01:53.697Z,6.00
2023-05-04T07:12:53.599Z,6.40
2023-05-04T07:23:53.539Z,4.30
2023-05-04T07:34:53.321Z,6.60
2023-05-04T07:45:53.241Z,5.60
2023-05-04T07:56:53.072Z,6.20
2023-05-04T08:07:52.943Z,6.30
2023-05-04T08:18:52.833Z,6.90
2023-05-04T08:19:47.806Z,7.30
2023-05-04T08:20:47.809Z,7.80
2023-05-04T08:31:52.721Z,6.50
2023-05-04T08:42:52.674Z,6.00
2023-05-04T08:53:52.503Z,5.60
2023-05-04T09:04:52.312Z,5.40
2023-05-04T09:15:52.192Z,5.30
2023-05-04T09:26:52.076Z,4.10
2023-05-04T09:37:51.958Z,4.40
2023-05-04T09:48:51.816Z,4.10
2023-05-04T09:59:51.705Z,4.20
2023-05-04T10:10:51.623Z,4.50
2023-05-04T10:21:51.443Z,4.00
2023-05-04T10:32:51.376Z,4.60
2023-05-04T10:43:51.198Z,5.50
2023-05-04T10:54:51.073Z,4.50
2023-05-04T11:05:51.001Z,5.30
2023-05-04T11:16:50.858Z,6.00
2023-05-04T11:27:50.713Z,5.50
2023-05-04T11:28:45.703Z,5.60
2023-05-04T11:29:45.720Z,6.20
2023-05-04T11:40:50.634Z,4.60
2023-05-04T11:41:45.554Z,4.90
2023-05-04T11:42:45.539Z,5.60
2023-05-04T11:53:50.438Z,5.40
2023-05-04T11:54:45.408Z,5.30
2023-05-04T11:55:45.400Z,5.70
2023-05-04T12:06:50.288Z,4.50
2023-05-04T12:07:45.313Z,4.80
2023-05-04T12:08:45.260Z,5.30
2023-05-04T12:19:50.135Z,5.30
2023-05-04T12:30:50.023Z,4.20
2023-05-04T12:41:49.927Z,4.40
2023-05-04T12:52:49.799Z,5.50
2023-05-04T12:53:44.773Z,5.30
2023-05-04T12:54:44.760Z,5.30
2023-05-04T13:05:49.667Z,3.50
2023-05-04T13:16:51.067Z,4.60
2023-05-04T13:27:49.398Z,4.70
2023-05-04T13:38:49.275Z,3.80
2023-05-04T13:49:49.146Z,4.50
2023-05-04T14:00:50.169Z,3.70
2023-05-04T14:11:48.912Z,4.00
2023-05-04T14:22:48.802Z,4.40
2023-05-04T14:33:48.657Z,2.60
2023-05-04T14:44:48.526Z,3.50
2023-05-04T14:55:48.399Z,3.60
2023-05-04T15:06:48.286Z,3.40
2023-05-04T15:17:48.222Z,3.70
2023-05-04T15:28:48.071Z,3.80
2023-05-04T15:39:47.912Z,3.10
2023-05-04T15:50:47.783Z,3.70
2023-05-04T16:01:47.765Z,4.30
2023-05-04T16:12:47.571Z,3.60
2023-05-04T16:23:47.427Z,3.50
2023-05-04T16:34:47.324Z,3.70
2023-05-04T16:45:47.193Z,3.60
2023-05-04T16:56:47.054Z,3.60
2023-05-04T17:07:46.919Z,3.50
2023-05-04T17:18:46.825Z,2.90
2023-05-04T17:29:46.673Z,3.30
2023-05-04T17:40:46.551Z,3.10
2023-05-04T17:51:46.476Z,3.20
2023-05-04T18:02:46.396Z,3.30
2023-05-04T18:13:46.174Z,3.10
2023-05-04T18:24:46.057Z,3.00
2023-05-04T18:35:45.931Z,2.90
2023-05-04T18:46:45.818Z,3.10
2023-05-04T18:57:45.694Z,3.00
2023-05-04T19:08:45.602Z,3.40
2023-05-04T19:19:45.437Z,3.60
2023-05-04T19:30:45.329Z,3.20
2023-05-04T19:41:45.184Z,3.70
2023-05-04T19:52:45.076Z,3.60
2023-05-04T20:03:44.953Z,3.20
2023-05-04T20:14:44.823Z,3.00
2023-05-04T20:25:44.683Z,3.40
